createdAt,value
2018-03-21T12:42:52.371Z,0.97
2018-03-21T12:45:27.923Z,0.87
2018-03-21T12:48:02.611Z,1.00
2018-03-21T12:50:37.239Z,0.90
2018-03-21T12:53:12.134Z,1.03
2018-03-21T12:55:47.365Z,1.10
2018-03-21T12:58:22.193Z,1.00
2018-03-21T13:00:56.918Z,1.20
2018-03-21T13:03:31.389Z,1.10
2018-03-21T13:06:06.512Z,1.00
2018-03-21T13:08:41.165Z,1.10
2018-03-21T13:11:15.658Z,1.00
2018-03-21T13:13:50.660Z,0.80
2018-03-21T13:16:25.179Z,1.23
2018-03-21T13:18:59.908Z,1.10
2018-03-21T13:21:34.762Z,0.90
2018-03-21T13:24:10.391Z,0.90
2018-03-21T13:26:45.116Z,0.87
2018-03-21T13:29:20.883Z,1.17
2018-03-21T13:31:56.195Z,0.80
2018-03-21T13:34:31.890Z,1.10
2018-03-21T13:37:07.270Z,1.10
2018-03-21T13:39:41.883Z,1.20
2018-03-21T13:42:16.830Z,0.90
2018-03-21T13:44:51.790Z,0.60
2018-03-21T13:47:26.194Z,1.07
2018-03-21T13:50:01.622Z,1.20
2018-03-21T13:52:36.336Z,1.73
2018-03-21T13:55:11.110Z,0.90
2018-03-21T13:57:46.004Z,1.00
2018-03-21T14:00:21.486Z,1.10
2018-03-21T14:02:56.671Z,0.77
2018-03-21T14:05:31.274Z,1.17
2018-03-21T14:08:05.858Z,1.00
2018-03-21T14:10:40.810Z,1.03
2018-03-21T14:13:15.277Z,1.00
2018-03-21T14:15:50.057Z,1.10
2018-03-21T14:18:24.735Z,1.00
2018-03-21T14:21:00.120Z,1.00
2018-03-21T14:23:36.388Z,1.10
2018-03-21T14:26:11.117Z,1.87
2018-03-21T14:28:45.702Z,1.23
2018-03-21T14:31:20.386Z,0.80
2018-03-21T14:33:55.012Z,0.97
2018-03-21T14:36:29.924Z,0.80
2018-03-21T14:39:04.917Z,1.00
2018-03-21T14:41:40.157Z,1.10
2018-03-21T14:44:15.604Z,0.93
2018-03-21T14:46:50.767Z,0.90
2018-03-21T14:49:26.015Z,0.83
2018-03-21T14:52:00.642Z,1.00
2018-03-21T14:54:35.398Z,0.70
2018-03-21T14:57:10.837Z,1.07
2018-03-21T14:59:45.544Z,1.00
2018-03-21T15:02:20.779Z,1.03
2018-03-21T15:04:55.163Z,0.83
2018-03-21T15:07:29.654Z,0.83
2018-03-21T15:10:04.179Z,1.10
2018-03-21T15:12:38.880Z,0.90
2018-03-21T15:15:13.422Z,1.20
2018-03-21T15:17:48.464Z,1.00
2018-03-21T15:20:23.754Z,0.80
2018-03-21T15:22:58.596Z,0.80
2018-03-21T15:25:33.065Z,1.10
2018-03-21T15:28:08.772Z,1.07
2018-03-21T15:30:43.808Z,1.03
2018-03-21T15:33:18.454Z,1.20
2018-03-21T15:35:53.467Z,1.10
2018-03-21T15:38:28.194Z,0.93
2018-03-21T15:41:03.410Z,1.00
2018-03-21T15:43:38.428Z,1.20
2018-03-21T15:46:13.125Z,0.80
2018-03-21T15:48:47.637Z,0.87
2018-03-21T15:51:22.227Z,0.83
2018-03-21T15:53:56.698Z,1.00
2018-03-21T15:56:31.248Z,0.90
2018-03-21T15:59:05.962Z,1.10
2018-03-21T16:01:40.718Z,0.87
2018-03-21T16:04:15.226Z,0.93
2018-03-21T16:06:49.810Z,1.00
2018-03-21T16:09:24.495Z,1.00
2018-03-21T16:11:59.994Z,0.80
2018-03-21T16:14:34.685Z,0.83
2018-03-21T16:17:09.090Z,1.00
2018-03-21T16:19:44.402Z,0.83
2018-03-21T16:22:19.060Z,0.90
2018-03-21T16:24:53.653Z,0.87
2018-03-21T16:27:28.303Z,0.70
2018-03-21T16:30:02.927Z,1.00
2018-03-21T16:32:37.674Z,1.13
2018-03-21T16:35:12.120Z,0.80
2018-03-21T16:37:46.705Z,0.80
2018-03-21T16:40:21.354Z,0.90
2018-03-21T16:42:56.038Z,0.70
2018-03-21T16:45:30.557Z,1.10
2018-03-21T16:48:05.238Z,1.30
2018-03-21T16:50:39.834Z,0.73
2018-03-21T16:53:14.561Z,1.17
2018-03-21T16:55:49.167Z,1.00
2018-03-21T16:58:23.783Z,1.00
2018-03-21T17:00:58.478Z,0.93
2018-03-21T17:03:33.139Z,0.87
2018-03-21T17:06:07.673Z,0.90
2018-03-21T17:08:42.271Z,0.80
2018-03-21T17:11:17.255Z,0.70
2018-03-21T17:13:51.878Z,0.97
2018-03-21T17:16:26.485Z,1.00
2018-03-21T17:19:01.049Z,0.60
2018-03-21T17:21:35.610Z,0.63
2018-03-21T17:24:10.257Z,0.80
2018-03-21T17:26:44.852Z,1.20
2018-03-21T17:29:19.354Z,0.80
2018-03-21T17:31:53.925Z,0.80
2018-03-21T17:34:28.550Z,0.80
2018-03-21T17:37:03.152Z,0.77
2018-03-21T17:39:37.776Z,0.90
2018-03-21T17:42:12.387Z,1.20
2018-03-21T17:44:47.890Z,0.87
2018-03-21T17:47:22.463Z,0.97
2018-03-21T17:49:57.034Z,1.03
2018-03-21T17:52:31.615Z,0.70
2018-03-21T17:55:06.293Z,0.83
2018-03-21T17:57:40.766Z,0.83
2018-03-21T18:00:15.407Z,0.80
2018-03-21T18:02:50.130Z,0.70
2018-03-21T18:05:24.870Z,0.80
2018-03-21T18:07:59.477Z,1.10
2018-03-21T18:10:34.186Z,0.73
2018-03-21T18:13:08.806Z,0.60
2018-03-21T18:15:43.354Z,0.97
2018-03-21T18:18:18.865Z,0.70
2018-03-21T18:20:53.415Z,0.90
2018-03-21T18:23:28.049Z,0.83
2018-03-21T18:26:02.713Z,1.00
2018-03-21T18:28:37.307Z,0.80
2018-03-21T18:31:11.842Z,0.97
2018-03-21T18:33:46.464Z,0.97
2018-03-21T18:36:21.089Z,1.00
2018-03-21T18:38:55.796Z,1.00
2018-03-21T18:41:30.877Z,1.00
2018-03-21T18:44:06.057Z,1.30
2018-03-21T18:46:40.718Z,1.33
2018-03-21T18:49:15.330Z,1.37
2018-03-21T18:51:49.906Z,1.07
2018-03-21T18:54:24.579Z,0.93
2018-03-21T18:56:59.126Z,1.10
2018-03-21T18:59:33.738Z,1.10
2018-03-21T19:02:08.298Z,1.07
2018-03-21T19:04:42.937Z,1.17
2018-03-21T19:07:17.593Z,1.13
2018-03-21T19:09:52.936Z,1.40
2018-03-21T19:12:27.574Z,1.20
2018-03-21T19:15:02.262Z,1.03
2018-03-21T19:17:36.801Z,1.20
2018-03-21T19:20:11.446Z,1.03
2018-03-21T19:22:46.405Z,1.17
2018-03-21T19:25:20.803Z,1.13
2018-03-21T19:27:55.467Z,1.33
2018-03-21T19:30:30.131Z,1.10
2018-03-21T19:33:04.570Z,1.30
2018-03-21T19:35:39.306Z,1.30
2018-03-21T19:38:13.908Z,1.10
2018-03-21T19:40:48.881Z,1.40
2018-03-21T19:43:23.359Z,1.33
2018-03-21T19:45:58.102Z,1.30
2018-03-21T19:48:32.757Z,1.20
2018-03-21T19:51:07.386Z,1.10
2018-03-21T19:53:42.838Z,1.27
2018-03-21T19:56:17.376Z,1.43
2018-03-21T19:58:51.933Z,1.07
2018-03-21T20:01:26.681Z,1.50
2018-03-21T20:04:01.187Z,1.33
2018-03-21T20:06:35.954Z,1.30
2018-03-21T20:09:10.413Z,1.43
2018-03-21T20:11:45.015Z,1.40
2018-03-21T20:14:19.630Z,1.40
2018-03-21T20:16:54.973Z,1.40
2018-03-21T20:19:29.438Z,1.20
2018-03-21T20:22:04.090Z,1.47
2018-03-21T20:24:38.690Z,1.63
2018-03-21T20:27:13.242Z,1.60
2018-03-21T20:29:47.860Z,1.40
2018-03-21T20:32:22.710Z,1.77
2018-03-21T20:34:57.194Z,1.53
2018-03-21T20:37:31.909Z,1.20
2018-03-21T20:40:06.792Z,1.63
2018-03-21T20:42:41.211Z,1.50
2018-03-21T20:45:16.045Z,1.20
2018-03-21T20:47:50.572Z,1.10
2018-03-21T20:50:25.174Z,1.30
2018-03-21T20:52:59.878Z,1.33
2018-03-21T20:55:34.374Z,1.90
2018-03-21T20:58:09.717Z,1.50
2018-03-21T21:00:44.325Z,1.80
2018-03-21T21:03:18.922Z,1.43
2018-03-21T21:05:53.673Z,1.80
2018-03-21T21:08:28.310Z,1.40
2018-03-21T21:11:03.014Z,1.60
2018-03-21T21:13:37.508Z,1.50
2018-03-21T21:16:12.122Z,1.30
2018-03-21T21:18:46.782Z,1.90
2018-03-21T21:21:21.221Z,1.37
2018-03-21T21:23:56.612Z,1.30
2018-03-21T21:26:31.302Z,1.57
2018-03-21T21:29:05.962Z,1.57
2018-03-21T21:31:40.734Z,1.77
2018-03-21T21:34:15.431Z,1.90
2018-03-21T21:36:50.029Z,1.50
2018-03-21T21:39:24.578Z,1.60
2018-03-21T21:41:59.158Z,1.67
2018-03-21T21:44:33.863Z,1.50
2018-03-21T21:47:08.519Z,1.77
2018-03-21T21:49:43.512Z,1.63
2018-03-21T21:52:18.339Z,1.40
2018-03-21T21:54:52.805Z,2.03
2018-03-21T21:57:27.457Z,1.60
2018-03-21T22:00:02.131Z,1.73
2018-03-21T22:02:36.758Z,1.83
2018-03-21T22:05:11.238Z,1.70
2018-03-21T22:07:45.965Z,1.90
2018-03-21T22:10:20.685Z,2.00
2018-03-21T22:12:55.226Z,1.67
2018-03-21T22:15:29.850Z,1.47
2018-03-21T22:18:04.402Z,1.90
2018-03-21T22:20:39.688Z,1.80
2018-03-21T22:23:14.329Z,1.60
2018-03-21T22:25:48.974Z,1.63
2018-03-21T22:28:23.653Z,1.60
2018-03-21T22:30:58.260Z,2.03
2018-03-21T22:33:32.906Z,1.43
2018-03-21T22:36:07.646Z,1.93
2018-03-21T22:38:42.299Z,1.53
2018-03-21T22:41:16.893Z,2.07
2018-03-21T22:43:51.544Z,1.70
2018-03-21T22:46:26.014Z,1.70
2018-03-21T22:49:00.661Z,1.60
2018-03-21T22:51:35.444Z,2.07
2018-03-21T22:54:10.062Z,2.10
2018-03-21T22:56:45.342Z,2.00
2018-03-21T22:59:19.951Z,1.73
2018-03-21T23:01:54.647Z,1.90
2018-03-21T23:04:29.373Z,1.90
2018-03-21T23:07:04.921Z,2.27
2018-03-21T23:09:39.324Z,1.63
2018-03-21T23:12:13.881Z,1.73
2018-03-21T23:14:48.539Z,1.93
2018-03-21T23:17:23.521Z,1.50
2018-03-21T23:19:57.982Z,2.33
2018-03-21T23:22:32.544Z,1.60
2018-03-21T23:25:07.215Z,2.10
2018-03-21T23:27:41.869Z,1.60
2018-03-21T23:30:16.470Z,1.70
2018-03-21T23:32:51.129Z,1.80
2018-03-21T23:35:26.573Z,1.53
2018-03-21T23:38:01.444Z,1.57
2018-03-21T23:40:36.174Z,1.73
2018-03-21T23:43:10.615Z,1.80
2018-03-21T23:45:45.624Z,1.73
2018-03-21T23:48:20.019Z,1.67
2018-03-21T23:50:54.642Z,1.43
2018-03-21T23:53:29.349Z,1.67
2018-03-21T23:56:03.959Z,1.70
2018-03-21T23:58:38.475Z,1.87
